createdAt,value
2022-09-15T00:00:44.794Z,20.14
2022-09-15T00:03:48.181Z,20.09
2022-09-15T00:06:51.235Z,20.11
2022-09-15T00:09:54.268Z,20.20
2022-09-15T00:12:57.092Z,20.19
2022-09-15T00:16:00.488Z,20.25
2022-09-15T00:19:04.382Z,20.17
2022-09-15T00:22:07.687Z,20.14
2022-09-15T00:25:11.408Z,20.25
2022-09-15T00:28:15.939Z,20.28
2022-09-15T00:31:21.828Z,20.31
2022-09-15T00:34:25.397Z,20.38
2022-09-15T00:37:28.281Z,20.35
2022-09-15T00:40:31.772Z,20.24
2022-09-15T00:43:47.115Z,20.18
2022-09-15T00:47:09.663Z,20.16
2022-09-15T00:50:18.929Z,20.09
2022-09-15T00:53:23.702Z,20.03
2022-09-15T00:56:27.701Z,19.83
2022-09-15T00:59:32.962Z,19.72
2022-09-15T01:02:37.954Z,19.76
2022-09-15T01:05:51.407Z,19.82
2022-09-15T01:09:02.131Z,19.74
2022-09-15T01:12:06.319Z,19.76
2022-09-15T01:15:09.383Z,19.89
2022-09-15T01:18:22.054Z,19.98
2022-09-15T01:21:45.230Z,20.02
2022-09-15T01:25:23.179Z,20.05
2022-09-15T01:28:53.321Z,20.04
2022-09-15T01:32:24.375Z,20.10
2022-09-15T01:35:48.800Z,20.16
2022-09-15T01:39:02.483Z,20.03
2022-09-15T01:42:09.804Z,20.00
2022-09-15T01:45:25.516Z,19.90
2022-09-15T01:48:30.206Z,19.76
2022-09-15T01:51:35.721Z,19.76
2022-09-15T01:54:51.431Z,19.71
2022-09-15T01:57:57.046Z,19.69
2022-09-15T02:01:47.169Z,19.74
2022-09-15T02:05:02.533Z,19.76
2022-09-15T02:08:29.181Z,19.80
2022-09-15T02:11:36.893Z,19.76
2022-09-15T02:15:05.562Z,19.78
2022-09-15T02:18:14.324Z,19.79
2022-09-15T02:21:24.283Z,19.83
2022-09-15T02:24:50.251Z,19.89
2022-09-15T02:27:57.672Z,19.87
2022-09-15T02:31:04.290Z,19.91
2022-09-15T02:34:18.190Z,19.88
2022-09-15T02:37:23.109Z,19.93
2022-09-15T02:40:28.376Z,19.86
2022-09-15T02:43:31.820Z,19.83
2022-09-15T02:46:39.217Z,19.92
2022-09-15T02:49:42.404Z,19.93
2022-09-15T02:52:46.259Z,19.79
2022-09-15T02:55:49.578Z,19.80
2022-09-15T02:58:52.994Z,19.85
2022-09-15T03:01:58.913Z,19.74
2022-09-15T03:05:01.855Z,19.69
2022-09-15T03:08:05.085Z,19.72
2022-09-15T03:11:31.022Z,19.71
2022-09-15T03:14:35.497Z,19.68
2022-09-15T03:17:44.144Z,19.65
2022-09-15T03:20:47.639Z,19.65
2022-09-15T03:23:50.503Z,19.78
2022-09-15T03:26:53.563Z,19.58
2022-09-15T03:29:56.520Z,19.53
2022-09-15T03:32:59.497Z,19.63
2022-09-15T03:36:03.221Z,19.61
2022-09-15T03:39:06.903Z,19.59
2022-09-15T03:42:10.326Z,19.47
2022-09-15T03:45:13.528Z,19.50
2022-09-15T03:48:16.132Z,19.54
2022-09-15T03:51:19.151Z,19.48
2022-09-15T03:54:22.067Z,19.45
2022-09-15T03:57:25.257Z,19.45
2022-09-15T04:00:28.316Z,19.42
2022-09-15T04:03:31.723Z,19.39
2022-09-15T04:06:35.649Z,19.37
2022-09-15T04:09:38.743Z,19.42
2022-09-15T04:12:44.561Z,19.42
2022-09-15T04:15:48.590Z,19.37
2022-09-15T04:18:55.435Z,19.34
2022-09-15T04:22:00.779Z,19.35
2022-09-15T04:25:04.228Z,19.33
2022-09-15T04:28:07.458Z,19.30
2022-09-15T04:31:13.453Z,19.44
2022-09-15T04:34:16.883Z,19.43
2022-09-15T04:37:21.910Z,19.44
2022-09-15T04:40:45.993Z,19.48
2022-09-15T04:43:50.338Z,19.41
2022-09-15T04:46:54.417Z,19.45
2022-09-15T04:49:57.273Z,19.41
2022-09-15T04:53:00.422Z,19.44
2022-09-15T04:56:07.720Z,19.51
2022-09-15T04:59:22.015Z,19.53
2022-09-15T05:02:25.045Z,19.60
2022-09-15T05:05:30.287Z,19.56
2022-09-15T05:08:33.493Z,19.58
2022-09-15T05:11:40.314Z,19.72
2022-09-15T05:14:45.881Z,19.80
2022-09-15T05:17:51.343Z,20.01
2022-09-15T05:21:01.942Z,20.09
2022-09-15T05:27:39.618Z,20.46
2022-09-15T05:49:04.708Z,19.92
2022-09-15T05:57:11.518Z,20.00
2022-09-15T06:00:15.306Z,20.11
2022-09-15T06:19:20.596Z,20.76
2022-09-15T06:22:28.410Z,20.82
2022-09-15T06:25:33.901Z,21.09
2022-09-15T06:28:38.520Z,20.90
2022-09-15T06:31:44.439Z,20.65
2022-09-15T06:34:47.583Z,20.57
2022-09-15T06:37:51.136Z,20.66
2022-09-15T06:40:58.424Z,20.69
2022-09-15T06:44:04.241Z,20.70
2022-09-15T06:47:07.596Z,20.72
2022-09-15T06:51:00.666Z,20.91
2022-09-15T06:59:18.866Z,20.82
2022-09-15T07:02:41.432Z,21.14
2022-09-15T07:05:46.484Z,21.14
2022-09-15T07:09:13.374Z,21.27
2022-09-15T07:12:16.451Z,21.52
2022-09-15T07:15:21.304Z,21.94
2022-09-15T07:19:06.058Z,21.89
2022-09-15T07:26:30.986Z,21.89
2022-09-15T07:29:37.725Z,21.94
2022-09-15T07:32:41.579Z,22.66
2022-09-15T07:35:45.196Z,23.28
2022-09-15T07:38:50.304Z,24.78
2022-09-15T07:51:11.518Z,24.90
2022-09-15T07:54:19.385Z,25.98
2022-09-15T07:57:24.774Z,25.21
2022-09-15T08:00:28.309Z,24.97
2022-09-15T08:03:31.555Z,24.48
2022-09-15T08:06:34.668Z,24.72
2022-09-15T08:09:58.302Z,24.33
2022-09-15T08:13:01.578Z,24.86
2022-09-15T08:16:12.658Z,25.00
2022-09-15T08:19:15.727Z,24.77
2022-09-15T08:22:19.152Z,25.40
2022-09-15T08:25:22.499Z,26.05
2022-09-15T08:28:26.568Z,25.80
2022-09-15T08:55:49.604Z,28.17
2022-09-15T08:58:56.518Z,27.63
2022-09-15T09:03:33.467Z,28.41
2022-09-15T09:06:49.665Z,29.67
2022-09-15T09:35:34.598Z,30.06
2022-09-15T09:38:43.277Z,30.29
2022-09-15T09:41:47.166Z,30.59
2022-09-15T09:44:50.807Z,31.36
2022-09-15T09:48:01.583Z,31.12
2022-09-15T09:51:49.403Z,30.55
2022-09-15T09:55:09.883Z,30.38
2022-09-15T09:58:22.291Z,30.80
2022-09-15T10:01:26.388Z,30.86
2022-09-15T10:04:31.244Z,31.81
2022-09-15T10:07:40.146Z,30.89
2022-09-15T10:10:52.644Z,30.23
2022-09-15T11:06:03.249Z,30.62
2022-09-15T13:01:00.685Z,27.43
2022-09-15T13:04:05.223Z,26.51
2022-09-15T13:07:17.365Z,26.15
2022-09-15T13:10:31.097Z,26.18
2022-09-15T13:14:08.697Z,25.82
2022-09-15T13:17:18.681Z,25.31
2022-09-15T13:20:51.133Z,23.62
2022-09-15T13:23:56.036Z,21.70
2022-09-15T13:26:59.394Z,20.47
2022-09-15T13:30:09.494Z,20.91
2022-09-15T13:41:15.794Z,21.54
2022-09-15T13:44:53.476Z,21.89
2022-09-15T13:48:07.666Z,21.78
2022-09-15T13:51:25.177Z,21.78
2022-09-15T13:54:28.173Z,21.80
2022-09-15T14:01:15.480Z,21.76
2022-09-15T14:04:28.490Z,21.78
2022-09-15T14:07:32.790Z,21.72
2022-09-15T14:10:54.774Z,21.76
2022-09-15T14:13:59.348Z,21.46
2022-09-15T14:17:03.249Z,21.02
2022-09-15T14:20:38.040Z,21.51
2022-09-15T14:24:20.944Z,21.48
2022-09-15T14:27:50.907Z,21.28
2022-09-15T14:31:00.895Z,20.86
2022-09-15T14:34:07.579Z,20.82
2022-09-15T14:37:47.099Z,20.63
2022-09-15T14:41:05.433Z,20.94
2022-09-15T14:48:02.317Z,20.96
2022-09-15T14:51:17.894Z,20.62
2022-09-15T14:54:27.736Z,20.66
2022-09-15T14:57:36.692Z,20.49
2022-09-15T15:01:08.454Z,20.43
2022-09-15T15:04:33.758Z,20.12
2022-09-15T15:07:37.935Z,19.97
2022-09-15T15:10:41.665Z,19.77
2022-09-15T15:13:49.122Z,19.72
2022-09-15T15:17:08.267Z,19.56
2022-09-15T15:20:10.909Z,19.60
2022-09-15T15:23:24.145Z,19.33
2022-09-15T15:26:29.690Z,19.23
2022-09-15T15:29:40.609Z,19.11
2022-09-15T15:32:49.923Z,19.07
2022-09-15T15:36:06.690Z,19.16
2022-09-15T15:39:24.614Z,19.12
2022-09-15T15:42:29.155Z,18.95
2022-09-15T15:45:58.857Z,18.90
2022-09-15T15:49:06.709Z,18.83
2022-09-15T15:52:10.117Z,18.90
2022-09-15T15:55:35.951Z,18.81
2022-09-15T15:58:39.125Z,18.87
2022-09-15T16:01:43.569Z,18.75
2022-09-15T16:04:46.400Z,18.88
2022-09-15T16:07:51.934Z,18.87
2022-09-15T16:11:01.567Z,19.04
2022-09-15T16:14:04.101Z,19.13
2022-09-15T16:17:08.260Z,18.90
2022-09-15T16:20:11.642Z,19.20
2022-09-15T16:23:17.455Z,19.12
2022-09-15T16:26:23.733Z,19.35
2022-09-15T16:29:29.907Z,19.47
2022-09-15T16:32:32.736Z,19.18
2022-09-15T16:35:43.695Z,19.04
2022-09-15T16:38:46.490Z,19.10
2022-09-15T16:41:49.355Z,18.84
2022-09-15T16:44:51.942Z,18.75
2022-09-15T16:48:01.850Z,18.60
2022-09-15T16:51:28.424Z,18.47
2022-09-15T16:54:33.738Z,18.48
2022-09-15T16:57:36.337Z,18.42
2022-09-15T17:00:41.928Z,18.49
2022-09-15T17:03:44.733Z,18.48
2022-09-15T17:06:48.343Z,18.50
2022-09-15T17:09:51.461Z,18.31
2022-09-15T17:12:54.659Z,18.57
2022-09-15T17:15:57.854Z,18.40
2022-09-15T17:19:01.266Z,18.79
2022-09-15T17:22:04.009Z,18.73
2022-09-15T17:25:30.051Z,18.57
2022-09-15T17:28:36.915Z,18.32
2022-09-15T17:31:39.983Z,18.31
2022-09-15T17:34:42.557Z,18.27
2022-09-15T17:37:46.098Z,18.22
2022-09-15T17:40:53.795Z,18.10
2022-09-15T17:43:57.037Z,18.19
2022-09-15T17:46:59.773Z,18.13
2022-09-15T17:50:03.378Z,18.04
2022-09-15T17:53:12.866Z,17.95
2022-09-15T17:56:16.389Z,17.83
2022-09-15T17:59:22.012Z,17.88
2022-09-15T18:02:27.186Z,18.00
2022-09-15T18:05:33.600Z,17.91
2022-09-15T18:08:36.681Z,17.92
2022-09-15T18:11:40.661Z,17.94
2022-09-15T18:14:43.348Z,17.92
2022-09-15T18:17:53.294Z,17.85
2022-09-15T18:20:58.469Z,17.78
2022-09-15T18:24:10.328Z,17.79
2022-09-15T18:27:13.015Z,17.85
2022-09-15T18:30:20.260Z,17.90
2022-09-15T18:33:26.923Z,17.92
2022-09-15T18:36:31.599Z,17.88
2022-09-15T18:39:35.246Z,17.91
2022-09-15T18:42:41.624Z,17.86
2022-09-15T18:45:44.889Z,17.84
2022-09-15T18:48:48.074Z,17.85
2022-09-15T18:51:51.850Z,17.75
2022-09-15T18:55:02.346Z,17.98
2022-09-15T18:58:05.598Z,17.93
2022-09-15T19:01:11.175Z,17.84
2022-09-15T19:04:38.493Z,17.90
2022-09-15T19:07:47.562Z,17.81
2022-09-15T19:11:00.913Z,17.76
2022-09-15T19:14:08.318Z,17.89
2022-09-15T19:17:12.319Z,17.93
2022-09-15T19:23:39.192Z,17.74
2022-09-15T19:26:47.271Z,17.79
2022-09-15T19:29:50.666Z,18.03
2022-09-15T19:32:53.800Z,18.07
2022-09-15T19:36:17.257Z,17.94
2022-09-15T19:39:24.846Z,17.93
2022-09-15T19:42:27.610Z,17.89
2022-09-15T19:45:30.636Z,17.93
2022-09-15T19:48:38.527Z,18.06
2022-09-15T19:51:43.649Z,17.89
2022-09-15T19:54:48.041Z,17.85
2022-09-15T19:57:51.358Z,17.91
2022-09-15T20:00:56.303Z,17.95
2022-09-15T20:03:59.701Z,17.99
2022-09-15T20:07:02.616Z,17.92
2022-09-15T20:10:07.078Z,17.93
2022-09-15T20:13:10.520Z,17.82
2022-09-15T20:16:21.180Z,17.85
2022-09-15T20:19:24.341Z,17.86
2022-09-15T20:22:28.613Z,17.87
2022-09-15T20:25:33.636Z,17.90
2022-09-15T20:28:36.794Z,17.82
2022-09-15T20:31:41.601Z,17.78
2022-09-15T20:34:45.528Z,17.81
2022-09-15T20:37:56.086Z,17.81
2022-09-15T20:41:01.803Z,17.81
2022-09-15T20:44:09.492Z,17.70
2022-09-15T20:47:13.104Z,17.76
2022-09-15T20:50:17.299Z,17.72
2022-09-15T20:53:20.752Z,17.78
2022-09-15T20:56:25.611Z,17.74
2022-09-15T20:59:28.797Z,17.67
2022-09-15T21:02:31.776Z,17.68
2022-09-15T21:05:34.730Z,17.87
2022-09-15T21:08:37.843Z,17.89
2022-09-15T21:11:43.241Z,17.95
2022-09-15T21:14:45.714Z,17.88
2022-09-15T21:17:48.497Z,17.99
2022-09-15T21:20:58.497Z,17.88
2022-09-15T21:24:08.714Z,17.85
2022-09-15T21:27:26.914Z,17.81
2022-09-15T21:30:30.009Z,17.72
2022-09-15T21:33:33.033Z,17.73
2022-09-15T21:36:35.944Z,17.67
2022-09-15T21:39:38.558Z,17.74
2022-09-15T21:42:42.648Z,17.76
2022-09-15T21:45:45.366Z,17.71
2022-09-15T21:48:49.061Z,17.62
2022-09-15T21:51:51.745Z,17.74
2022-09-15T21:54:54.533Z,17.85
2022-09-15T21:57:57.162Z,17.75
2022-09-15T22:01:10.848Z,17.87
2022-09-15T22:04:13.644Z,17.77
2022-09-15T22:07:17.363Z,17.64
2022-09-15T22:10:22.135Z,17.64
2022-09-15T22:13:24.776Z,17.58
2022-09-15T22:16:30.143Z,17.56
2022-09-15T22:19:32.963Z,17.54
2022-09-15T22:22:35.932Z,17.53
2022-09-15T22:25:38.533Z,17.45
2022-09-15T22:28:41.609Z,17.46
2022-09-15T22:31:44.308Z,17.51
2022-09-15T22:34:47.827Z,17.43
2022-09-15T22:37:50.404Z,17.44
2022-09-15T22:40:53.184Z,17.38
2022-09-15T22:43:55.934Z,17.33
2022-09-15T22:47:00.219Z,17.34
2022-09-15T22:50:02.863Z,17.42
2022-09-15T22:53:06.043Z,17.40
2022-09-15T22:56:12.172Z,17.49
2022-09-15T22:59:15.019Z,17.56
2022-09-15T23:02:17.643Z,17.57
2022-09-15T23:05:20.544Z,17.55
2022-09-15T23:08:23.078Z,17.57
2022-09-15T23:11:27.939Z,17.52
2022-09-15T23:14:30.491Z,17.54
2022-09-15T23:17:34.478Z,17.48
2022-09-15T23:20:39.788Z,17.61
2022-09-15T23:23:44.317Z,17.69
2022-09-15T23:26:46.802Z,17.70
2022-09-15T23:29:49.914Z,17.59
2022-09-15T23:32:52.747Z,17.56
2022-09-15T23:35:55.960Z,17.47
2022-09-15T23:38:58.550Z,17.64
2022-09-15T23:42:02.038Z,17.47
2022-09-15T23:45:05.037Z,17.55
2022-09-15T23:48:10.584Z,17.55
2022-09-15T23:51:13.398Z,17.44
2022-09-15T23:54:16.281Z,17.34
2022-09-15T23:57:19.364Z,17.31
